createdAt,value
2022-07-27T00:00:46.401Z,3.60
2022-07-27T00:03:13.024Z,4.45
2022-07-27T00:05:39.768Z,4.88
2022-07-27T00:08:06.759Z,4.75
2022-07-27T00:10:34.273Z,4.38
2022-07-27T00:13:00.860Z,4.53
2022-07-27T00:15:27.446Z,5.25
2022-07-27T00:17:53.907Z,4.45
2022-07-27T00:20:20.377Z,4.65
2022-07-27T00:22:54.959Z,4.30
2022-07-27T00:25:22.943Z,4.65
2022-07-27T00:27:49.920Z,4.45
2022-07-27T00:30:16.761Z,4.25
2022-07-27T00:32:43.292Z,4.70
2022-07-27T00:35:10.604Z,4.03
2022-07-27T00:37:37.511Z,4.18
2022-07-27T00:40:05.475Z,4.72
2022-07-27T00:42:32.099Z,3.17
2022-07-27T00:44:58.748Z,4.63
2022-07-27T00:47:25.782Z,3.42
2022-07-27T00:49:52.740Z,3.60
2022-07-27T00:52:21.273Z,3.78
2022-07-27T00:54:48.011Z,4.03
2022-07-27T00:57:15.548Z,3.65
2022-07-27T00:59:42.926Z,4.05
2022-07-27T01:02:11.221Z,3.65
2022-07-27T01:04:38.702Z,4.70
2022-07-27T01:07:06.545Z,4.38
2022-07-27T01:09:54.415Z,4.22
2022-07-27T01:12:21.275Z,4.07
2022-07-27T01:14:49.229Z,2.70
2022-07-27T01:17:16.888Z,3.30
2022-07-27T01:19:43.723Z,2.72
2022-07-27T01:22:10.500Z,2.20
2022-07-27T01:24:37.368Z,1.80
2022-07-27T01:27:04.785Z,2.17
2022-07-27T01:29:34.317Z,1.92
2022-07-27T01:32:01.837Z,1.83
2022-07-27T01:34:28.492Z,1.90
2022-07-27T01:36:55.023Z,2.30
2022-07-27T01:39:21.613Z,2.47
2022-07-27T01:41:48.215Z,2.60
2022-07-27T01:44:14.942Z,2.33
2022-07-27T01:46:41.491Z,2.10
2022-07-27T01:49:08.470Z,1.40
2022-07-27T01:51:35.264Z,1.20
2022-07-27T01:54:01.738Z,2.00
2022-07-27T01:56:28.229Z,2.33
2022-07-27T01:58:55.312Z,1.80
2022-07-27T02:01:22.116Z,2.25
2022-07-27T02:03:48.718Z,1.80
2022-07-27T02:06:15.411Z,2.22
2022-07-27T02:08:41.894Z,2.15
2022-07-27T02:11:27.226Z,1.70
2022-07-27T02:13:53.701Z,2.60
2022-07-27T02:16:20.476Z,2.10
2022-07-27T02:18:48.688Z,2.55
2022-07-27T02:21:15.822Z,2.15
2022-07-27T02:23:44.504Z,1.77
2022-07-27T02:26:11.121Z,2.17
2022-07-27T02:28:37.676Z,2.80
2022-07-27T02:31:04.534Z,2.97
2022-07-27T02:33:31.114Z,3.33
2022-07-27T02:35:57.603Z,2.60
2022-07-27T02:38:24.188Z,2.50
2022-07-27T02:40:50.734Z,2.92
2022-07-27T02:43:17.217Z,2.45
2022-07-27T02:45:43.726Z,4.20
2022-07-27T02:48:13.022Z,2.80
2022-07-27T02:50:39.572Z,2.75
2022-07-27T02:53:06.084Z,3.28
2022-07-27T02:55:32.710Z,2.97
2022-07-27T02:57:59.263Z,2.55
2022-07-27T03:00:25.995Z,3.08
2022-07-27T03:02:52.635Z,2.35
2022-07-27T03:05:20.297Z,3.22
2022-07-27T03:07:46.900Z,4.50
2022-07-27T03:10:13.391Z,3.22
2022-07-27T03:12:40.151Z,4.50
2022-07-27T03:15:07.232Z,3.97
2022-07-27T03:17:33.716Z,3.35
2022-07-27T03:20:00.228Z,3.72
2022-07-27T03:22:30.798Z,3.60
2022-07-27T03:27:23.906Z,3.25
2022-07-27T03:29:50.423Z,3.38
2022-07-27T03:32:17.213Z,3.28
2022-07-27T03:34:43.694Z,4.00
2022-07-27T03:37:10.190Z,4.22
2022-07-27T03:39:36.678Z,4.03
2022-07-27T03:42:03.938Z,4.18
2022-07-27T03:44:30.458Z,3.92
2022-07-27T03:46:56.941Z,3.75
2022-07-27T03:49:23.896Z,2.47
2022-07-27T03:51:50.550Z,4.15
2022-07-27T03:54:17.868Z,4.18
2022-07-27T03:56:45.346Z,5.22
2022-07-27T03:59:12.309Z,4.30
2022-07-27T04:01:39.266Z,3.70
2022-07-27T04:04:05.825Z,4.18
2022-07-27T04:06:33.036Z,4.30
2022-07-27T04:09:08.831Z,3.92
2022-07-27T04:11:37.830Z,4.85
2022-07-27T04:14:12.724Z,5.43
2022-07-27T04:16:40.142Z,4.55
2022-07-27T04:19:07.196Z,6.13
2022-07-27T04:21:35.221Z,4.88
2022-07-27T04:24:02.448Z,4.57
2022-07-27T04:26:29.366Z,4.97
2022-07-27T04:28:56.281Z,4.38
2022-07-27T04:31:23.343Z,4.60
2022-07-27T04:33:49.917Z,3.95
2022-07-27T04:36:16.473Z,4.57
2022-07-27T04:38:42.941Z,4.43
2022-07-27T04:41:09.415Z,4.78
2022-07-27T04:43:35.879Z,3.70
2022-07-27T04:46:04.637Z,3.40
2022-07-27T04:48:35.580Z,4.82
2022-07-27T04:51:02.674Z,4.85
2022-07-27T04:53:29.204Z,4.28
2022-07-27T04:55:55.754Z,5.65
2022-07-27T04:58:22.417Z,4.00
2022-07-27T05:00:49.116Z,4.45
2022-07-27T05:03:15.805Z,5.30
2022-07-27T05:05:49.796Z,4.63
2022-07-27T05:08:17.503Z,4.82
2022-07-27T05:10:44.095Z,4.97
2022-07-27T05:13:10.635Z,5.57
2022-07-27T05:15:54.490Z,6.60
2022-07-27T05:18:23.251Z,4.45
2022-07-27T05:20:50.350Z,5.90
2022-07-27T05:23:17.604Z,6.30
2022-07-27T05:25:44.096Z,6.43
2022-07-27T05:28:13.882Z,5.82
2022-07-27T05:30:40.451Z,6.88
2022-07-27T05:33:06.922Z,6.80
2022-07-27T05:35:33.566Z,6.53
2022-07-27T05:37:59.994Z,6.40
2022-07-27T05:40:26.680Z,5.72
2022-07-27T05:42:53.305Z,5.65
2022-07-27T05:45:20.395Z,5.22
2022-07-27T05:47:46.951Z,4.85
2022-07-27T05:50:14.044Z,6.20
2022-07-27T05:52:40.572Z,6.65
2022-07-27T05:55:07.781Z,6.57
2022-07-27T05:57:34.336Z,5.45
2022-07-27T06:00:01.532Z,7.20
2022-07-27T06:02:30.278Z,5.25
2022-07-27T06:04:57.350Z,5.60
2022-07-27T06:07:42.843Z,6.82
2022-07-27T06:10:09.603Z,6.28
2022-07-27T06:12:43.198Z,6.53
2022-07-27T06:15:11.201Z,6.13
2022-07-27T06:17:37.771Z,6.20
2022-07-27T06:20:06.228Z,4.50
2022-07-27T06:22:32.890Z,5.85
2022-07-27T06:24:59.712Z,7.50
2022-07-27T06:27:29.566Z,6.88
2022-07-27T06:29:56.262Z,6.53
2022-07-27T06:32:22.940Z,6.30
2022-07-27T06:34:49.549Z,5.85
2022-07-27T06:37:17.005Z,5.88
2022-07-27T06:39:46.576Z,5.88
2022-07-27T06:42:15.928Z,5.15
2022-07-27T06:44:42.359Z,4.57
2022-07-27T06:47:08.943Z,6.00
2022-07-27T06:49:35.453Z,4.75
2022-07-27T06:52:02.129Z,5.53
2022-07-27T06:54:28.728Z,4.13
2022-07-27T06:56:55.229Z,5.53
2022-07-27T06:59:21.696Z,5.38
2022-07-27T07:01:48.978Z,4.45
2022-07-27T07:04:15.666Z,5.25
2022-07-27T07:06:42.216Z,3.30
2022-07-27T07:09:09.127Z,4.53
2022-07-27T07:11:36.086Z,4.03
2022-07-27T07:14:02.803Z,3.83
2022-07-27T07:16:29.346Z,4.68
2022-07-27T07:18:55.933Z,3.63
2022-07-27T07:21:22.498Z,4.40
2022-07-27T07:23:49.003Z,3.53
2022-07-27T07:26:15.557Z,3.42
2022-07-27T07:28:42.189Z,3.95
2022-07-27T07:31:09.605Z,3.42
2022-07-27T07:33:36.148Z,2.75
2022-07-27T07:36:11.929Z,3.50
2022-07-27T07:38:40.943Z,3.33
2022-07-27T07:41:07.431Z,3.90
2022-07-27T07:43:35.574Z,2.83
2022-07-27T07:46:02.933Z,3.70
2022-07-27T07:48:29.405Z,3.65
2022-07-27T07:50:55.875Z,3.50
2022-07-27T07:53:23.223Z,3.70
2022-07-27T07:55:50.760Z,4.18
2022-07-27T07:58:18.092Z,3.30
2022-07-27T08:00:44.614Z,4.10
2022-07-27T08:03:11.161Z,3.45
2022-07-27T08:05:38.004Z,3.53
2022-07-27T08:08:04.774Z,3.72
2022-07-27T08:10:31.448Z,3.08
2022-07-27T08:12:58.220Z,3.90
2022-07-27T08:15:35.161Z,3.50
2022-07-27T08:18:04.778Z,4.35
2022-07-27T08:20:31.662Z,3.75
2022-07-27T08:22:58.116Z,4.07
2022-07-27T08:25:24.648Z,3.15
2022-07-27T08:27:51.125Z,5.07
2022-07-27T08:30:17.748Z,3.33
2022-07-27T08:32:48.162Z,4.28
2022-07-27T08:35:17.381Z,4.38
2022-07-27T08:37:44.120Z,4.40
2022-07-27T08:43:00.649Z,4.25
2022-07-27T08:45:27.554Z,4.63
2022-07-27T08:47:54.217Z,4.00
2022-07-27T08:50:25.099Z,4.50
2022-07-27T08:53:06.134Z,3.72
2022-07-27T08:55:37.960Z,4.05
2022-07-27T08:58:05.786Z,4.43
2022-07-27T09:00:34.553Z,3.97
2022-07-27T09:03:01.671Z,4.03
2022-07-27T09:05:37.527Z,4.18
2022-07-27T09:08:17.847Z,6.75
2022-07-27T09:10:44.841Z,5.07
2022-07-27T09:13:18.612Z,5.13
2022-07-27T09:16:15.755Z,5.22
2022-07-27T09:18:33.878Z,2.92
2022-07-27T09:21:17.398Z,3.22
2022-07-27T09:23:49.848Z,4.55
2022-07-27T09:26:31.799Z,3.40
2022-07-27T09:29:02.406Z,3.83
2022-07-27T09:31:29.524Z,3.97
2022-07-27T09:34:00.135Z,4.15
2022-07-27T09:36:28.297Z,3.08
2022-07-27T09:39:06.954Z,3.53
2022-07-27T09:41:45.857Z,3.63
2022-07-27T09:44:31.707Z,3.05
2022-07-27T09:46:59.594Z,4.00
2022-07-27T09:49:33.121Z,3.55
2022-07-27T09:52:03.961Z,3.83
2022-07-27T09:54:44.590Z,6.47
2022-07-27T09:57:11.280Z,4.50
2022-07-27T09:59:37.745Z,3.92
2022-07-27T10:02:05.628Z,3.33
2022-07-27T10:04:35.317Z,4.40
2022-07-27T10:07:04.455Z,4.40
2022-07-27T10:09:34.915Z,4.28
2022-07-27T10:12:04.362Z,4.60
2022-07-27T10:14:32.204Z,3.80
2022-07-27T10:16:58.878Z,2.90
2022-07-27T10:19:33.839Z,3.55
2022-07-27T10:22:00.523Z,4.25
2022-07-27T10:24:33.925Z,3.78
2022-07-27T10:27:22.208Z,3.60
2022-07-27T10:29:50.002Z,4.15
2022-07-27T10:32:31.786Z,3.60
2022-07-27T10:34:59.867Z,3.25
2022-07-27T10:37:28.291Z,3.38
2022-07-27T10:40:18.978Z,3.22
2022-07-27T10:42:51.895Z,3.80
2022-07-27T10:45:20.540Z,3.28
2022-07-27T10:47:52.692Z,3.55
2022-07-27T10:50:25.271Z,3.40
2022-07-27T10:52:57.656Z,3.28
2022-07-27T10:55:30.575Z,3.22
2022-07-27T10:57:57.804Z,3.13
2022-07-27T11:00:54.229Z,3.45
2022-07-27T11:03:23.984Z,4.55
2022-07-27T11:06:31.570Z,4.15
2022-07-27T11:09:46.489Z,3.97
2022-07-27T11:11:43.171Z,3.38
2022-07-27T11:14:11.426Z,3.72
2022-07-27T11:16:54.027Z,3.30
2022-07-27T11:19:23.860Z,3.13
2022-07-27T11:21:52.360Z,3.05
2022-07-27T11:24:19.241Z,3.67
2022-07-27T11:26:47.239Z,2.67
2022-07-27T11:29:16.506Z,3.25
2022-07-27T11:31:55.217Z,3.07
2022-07-27T11:34:33.723Z,3.60
2022-07-27T11:37:03.165Z,3.40
2022-07-27T11:39:59.101Z,2.47
2022-07-27T11:42:21.331Z,2.95
2022-07-27T11:44:51.092Z,2.72
2022-07-27T11:47:19.319Z,3.75
2022-07-27T11:49:45.860Z,2.83
2022-07-27T11:52:12.432Z,2.78
2022-07-27T11:54:41.244Z,2.85
2022-07-27T11:57:09.237Z,2.63
2022-07-27T11:59:37.774Z,3.85
2022-07-27T12:02:13.955Z,2.92
2022-07-27T12:04:42.905Z,4.10
2022-07-27T12:07:21.901Z,3.28
2022-07-27T12:09:51.333Z,3.80
2022-07-27T12:12:23.543Z,2.80
2022-07-27T12:14:54.188Z,3.15
2022-07-27T12:17:25.690Z,3.15
2022-07-27T12:20:01.242Z,2.95
2022-07-27T12:22:40.988Z,3.25
2022-07-27T12:25:10.047Z,3.65
2022-07-27T12:28:06.104Z,3.65
2022-07-27T12:30:38.030Z,2.92
2022-07-27T12:33:27.463Z,3.15
2022-07-27T12:35:54.327Z,2.60
2022-07-27T12:38:20.850Z,3.30
2022-07-27T12:41:01.166Z,3.13
2022-07-27T12:43:28.138Z,2.90
2022-07-27T12:45:55.276Z,3.03
2022-07-27T12:48:25.313Z,3.85
2022-07-27T12:51:04.067Z,3.40
2022-07-27T12:53:31.996Z,3.10
2022-07-27T12:56:02.150Z,3.30
2022-07-27T13:00:55.543Z,3.03
2022-07-27T13:03:22.228Z,2.88
2022-07-27T13:05:48.788Z,3.75
2022-07-27T13:08:16.565Z,2.97
2022-07-27T13:10:44.475Z,2.60
2022-07-27T13:13:11.499Z,4.00
2022-07-27T13:15:38.095Z,3.40
2022-07-27T13:18:04.650Z,2.72
2022-07-27T13:20:31.572Z,2.67
2022-07-27T13:22:58.120Z,3.00
2022-07-27T13:25:24.620Z,3.03
2022-07-27T13:27:51.168Z,2.85
2022-07-27T13:30:18.772Z,2.85
2022-07-27T13:32:48.712Z,3.22
2022-07-27T13:35:16.937Z,4.45
2022-07-27T13:37:44.518Z,3.38
2022-07-27T13:40:11.554Z,3.08
2022-07-27T13:42:38.454Z,3.40
2022-07-27T13:45:10.274Z,2.88
2022-07-27T13:47:38.643Z,2.58
2022-07-27T13:50:06.302Z,2.95
2022-07-27T13:52:32.824Z,2.75
2022-07-27T13:54:59.294Z,3.58
2022-07-27T13:57:25.763Z,2.75
2022-07-27T13:59:53.181Z,2.83
2022-07-27T14:02:23.090Z,3.03
2022-07-27T14:04:50.811Z,3.40
2022-07-27T14:07:17.578Z,3.05
2022-07-27T14:12:46.869Z,2.30
2022-07-27T14:15:13.421Z,3.00
2022-07-27T14:17:39.894Z,3.60
2022-07-27T14:20:07.232Z,2.60
2022-07-27T14:22:33.706Z,3.53
2022-07-27T14:25:00.185Z,3.45
2022-07-27T14:27:26.641Z,2.97
2022-07-27T14:30:04.586Z,3.45
2022-07-27T14:32:31.087Z,3.00
2022-07-27T14:34:58.148Z,2.90
2022-07-27T14:37:24.599Z,3.15
2022-07-27T14:39:51.051Z,3.33
2022-07-27T14:42:28.352Z,3.67
2022-07-27T14:44:54.962Z,3.45
2022-07-27T14:50:06.913Z,3.55
2022-07-27T14:52:33.469Z,4.47
2022-07-27T14:55:00.453Z,3.88
2022-07-27T14:57:27.675Z,4.47
2022-07-27T14:59:54.907Z,4.68
2022-07-27T15:02:21.432Z,3.65
2022-07-27T15:04:49.014Z,3.90
2022-07-27T15:07:15.925Z,3.60
2022-07-27T15:09:42.412Z,4.35
2022-07-27T15:12:09.374Z,3.95
2022-07-27T15:14:39.048Z,4.10
2022-07-27T15:17:05.862Z,4.28
2022-07-27T15:19:32.400Z,4.32
2022-07-27T15:21:58.898Z,3.88
2022-07-27T15:24:25.461Z,3.42
2022-07-27T15:26:52.048Z,3.72
2022-07-27T15:29:18.504Z,4.10
2022-07-27T15:31:45.020Z,3.85
2022-07-27T15:34:11.665Z,3.90
2022-07-27T15:36:44.719Z,3.58
2022-07-27T15:39:13.334Z,3.33
2022-07-27T15:41:40.079Z,4.45
2022-07-27T15:44:07.229Z,3.40
2022-07-27T15:46:34.300Z,2.50
2022-07-27T15:49:01.014Z,3.70
2022-07-27T15:51:27.554Z,3.20
2022-07-27T15:53:54.128Z,4.00
2022-07-27T15:56:20.581Z,3.80
2022-07-27T15:58:47.017Z,4.00
2022-07-27T16:01:13.755Z,3.72
2022-07-27T16:03:40.699Z,3.10
2022-07-27T16:06:07.189Z,3.85
2022-07-27T16:08:33.654Z,4.13
2022-07-27T16:11:00.229Z,4.03
2022-07-27T16:13:26.751Z,3.92
2022-07-27T16:16:12.289Z,3.38
2022-07-27T16:18:39.390Z,5.15
2022-07-27T16:21:07.046Z,7.05
2022-07-27T16:23:33.691Z,3.92
2022-07-27T16:26:04.436Z,3.08
2022-07-27T16:28:33.203Z,3.33
2022-07-27T16:30:59.767Z,2.97
2022-07-27T16:33:26.640Z,3.67
2022-07-27T16:35:53.203Z,3.03
2022-07-27T16:38:19.687Z,2.97
2022-07-27T16:40:46.156Z,2.72
2022-07-27T16:43:12.625Z,3.63
2022-07-27T16:45:39.312Z,3.00
2022-07-27T16:48:06.091Z,2.85
2022-07-27T16:50:32.598Z,3.28
2022-07-27T16:52:59.097Z,3.83
2022-07-27T16:55:27.477Z,3.47
2022-07-27T16:57:54.438Z,2.70
2022-07-27T17:00:20.953Z,3.05
2022-07-27T17:02:47.855Z,3.95
2022-07-27T17:05:14.316Z,5.15
2022-07-27T17:07:42.685Z,3.85
2022-07-27T17:10:09.772Z,3.25
2022-07-27T17:12:39.070Z,3.90
2022-07-27T17:15:07.166Z,4.03
2022-07-27T17:17:34.413Z,2.95
2022-07-27T17:20:01.012Z,3.03
2022-07-27T17:22:27.566Z,3.60
2022-07-27T17:24:54.023Z,3.70
2022-07-27T17:27:20.922Z,3.90
2022-07-27T17:29:47.493Z,3.63
2022-07-27T17:32:14.013Z,4.50
2022-07-27T17:34:41.665Z,3.92
2022-07-27T17:37:08.214Z,3.53
2022-07-27T17:39:35.324Z,3.97
2022-07-27T17:42:01.861Z,3.85
2022-07-27T17:44:28.351Z,4.18
2022-07-27T17:46:54.858Z,3.67
2022-07-27T17:49:21.834Z,3.35
2022-07-27T17:51:48.366Z,4.18
2022-07-27T17:54:14.846Z,4.35
2022-07-27T17:56:41.758Z,2.90
2022-07-27T17:59:34.686Z,3.80
2022-07-27T18:01:56.458Z,3.60
2022-07-27T18:04:23.063Z,3.88
2022-07-27T18:06:49.612Z,3.80
2022-07-27T18:09:17.166Z,3.40
2022-07-27T18:11:44.242Z,4.65
2022-07-27T18:14:10.749Z,4.03
2022-07-27T18:16:40.693Z,3.92
2022-07-27T18:21:35.525Z,3.95
2022-07-27T18:24:02.420Z,4.80
2022-07-27T18:26:28.939Z,4.32
2022-07-27T18:28:57.501Z,3.33
2022-07-27T18:31:24.558Z,4.13
2022-07-27T18:33:54.246Z,4.40
2022-07-27T18:36:21.600Z,5.25
2022-07-27T18:38:49.908Z,4.55
2022-07-27T18:41:18.919Z,5.70
2022-07-27T18:43:51.056Z,5.53
2022-07-27T18:46:22.301Z,4.38
2022-07-27T18:48:49.539Z,5.30
2022-07-27T18:51:16.310Z,4.93
2022-07-27T18:53:46.194Z,4.05
2022-07-27T18:56:12.708Z,4.63
2022-07-27T18:58:40.568Z,5.75
2022-07-27T19:01:09.284Z,5.38
2022-07-27T19:03:37.169Z,5.43
2022-07-27T19:08:35.068Z,4.70
2022-07-27T19:11:01.574Z,5.13
2022-07-27T19:13:28.094Z,5.03
2022-07-27T19:15:54.595Z,7.15
2022-07-27T19:18:23.555Z,6.68
2022-07-27T19:20:50.501Z,7.78
2022-07-27T19:23:17.139Z,6.03
2022-07-27T19:25:45.209Z,7.22
2022-07-27T19:28:15.869Z,7.47
2022-07-27T19:30:42.465Z,7.10
2022-07-27T19:33:09.018Z,7.60
2022-07-27T19:35:35.488Z,6.63
2022-07-27T19:38:02.251Z,8.45
2022-07-27T19:40:45.649Z,7.20
2022-07-27T19:43:12.884Z,7.82
2022-07-27T19:45:39.924Z,7.05
2022-07-27T19:48:08.123Z,7.03
2022-07-27T19:50:34.853Z,6.97
2022-07-27T19:53:02.131Z,7.57
2022-07-27T19:55:28.630Z,6.32
2022-07-27T19:57:55.101Z,7.10
2022-07-27T20:00:21.961Z,6.47
2022-07-27T20:02:49.271Z,7.03
2022-07-27T20:05:15.941Z,8.07
2022-07-27T20:07:43.408Z,8.27
2022-07-27T20:10:10.674Z,9.27
2022-07-27T20:12:37.358Z,7.80
2022-07-27T20:15:04.965Z,7.45
2022-07-27T20:17:36.033Z,8.30
2022-07-27T20:20:05.014Z,8.25
2022-07-27T20:22:32.100Z,8.15
2022-07-27T20:24:58.775Z,7.90
2022-07-27T20:27:25.684Z,6.50
2022-07-27T20:29:52.179Z,7.88
2022-07-27T20:32:18.670Z,6.90
2022-07-27T20:34:45.121Z,9.10
2022-07-27T20:37:12.378Z,8.85
2022-07-27T20:39:38.852Z,8.30
2022-07-27T20:42:05.384Z,8.85
2022-07-27T20:44:31.856Z,8.32
2022-07-27T20:46:58.342Z,7.25
2022-07-27T20:49:24.907Z,9.27
2022-07-27T20:51:51.450Z,10.25
2022-07-27T20:54:18.840Z,9.15
2022-07-27T20:56:55.796Z,10.07
2022-07-27T20:59:22.745Z,9.85
2022-07-27T21:01:49.629Z,10.27
2022-07-27T21:04:18.740Z,8.82
2022-07-27T21:06:45.584Z,11.07
2022-07-27T21:09:12.416Z,11.02
2022-07-27T21:11:39.137Z,10.77
2022-07-27T21:14:07.591Z,9.93
2022-07-27T21:16:34.136Z,11.20
2022-07-27T21:19:00.608Z,12.68
2022-07-27T21:21:27.794Z,12.80
2022-07-27T21:24:13.419Z,12.68
2022-07-27T21:26:40.258Z,12.82
2022-07-27T21:29:09.282Z,14.40
2022-07-27T21:31:36.188Z,11.57
2022-07-27T21:34:02.729Z,13.10
2022-07-27T21:36:29.269Z,12.85
2022-07-27T21:38:55.830Z,14.00
2022-07-27T21:41:22.881Z,11.43
2022-07-27T21:43:49.603Z,12.77
2022-07-27T21:46:16.135Z,11.68
2022-07-27T21:48:42.902Z,13.43
2022-07-27T21:51:09.608Z,12.90
2022-07-27T21:53:36.091Z,12.98
2022-07-27T21:56:02.711Z,11.07
2022-07-27T21:58:29.176Z,13.55
2022-07-27T22:00:56.360Z,12.90
2022-07-27T22:03:22.891Z,14.73
2022-07-27T22:05:49.380Z,16.10
2022-07-27T22:08:15.826Z,13.20
2022-07-27T22:10:42.326Z,14.13
2022-07-27T22:13:08.774Z,15.05
2022-07-27T22:15:35.213Z,14.68
2022-07-27T22:18:01.665Z,14.70
2022-07-27T22:20:28.178Z,14.98
2022-07-27T22:22:54.663Z,17.38
2022-07-27T22:25:21.158Z,15.07
2022-07-27T22:27:47.650Z,15.45
2022-07-27T22:30:15.275Z,16.05
2022-07-27T22:32:41.774Z,14.90
2022-07-27T22:35:08.305Z,14.80
2022-07-27T22:37:34.773Z,15.63
2022-07-27T22:40:01.269Z,16.88
2022-07-27T22:42:28.175Z,15.52
2022-07-27T22:44:54.705Z,15.82
2022-07-27T22:47:21.348Z,16.23
2022-07-27T22:49:47.889Z,16.83
2022-07-27T22:52:14.394Z,15.70
2022-07-27T22:54:41.962Z,18.00
2022-07-27T22:57:08.730Z,15.25
2022-07-27T22:59:35.412Z,15.20
2022-07-27T23:02:02.038Z,16.50
2022-07-27T23:04:28.573Z,16.25
2022-07-27T23:06:55.167Z,14.68
2022-07-27T23:09:23.098Z,16.98
2022-07-27T23:11:50.530Z,15.18
2022-07-27T23:14:17.639Z,16.65
2022-07-27T23:16:44.554Z,17.80
2022-07-27T23:19:11.096Z,17.27
2022-07-27T23:21:39.404Z,16.13
2022-07-27T23:24:06.954Z,18.17
2022-07-27T23:26:33.601Z,16.80
2022-07-27T23:29:00.444Z,17.38
2022-07-27T23:31:27.057Z,13.73
2022-07-27T23:33:53.697Z,17.08
2022-07-27T23:36:20.208Z,15.93
2022-07-27T23:38:46.743Z,17.70
2022-07-27T23:41:13.371Z,15.73
2022-07-27T23:43:39.849Z,15.55
2022-07-27T23:46:06.876Z,16.00
2022-07-27T23:48:33.616Z,13.48
2022-07-27T23:51:00.170Z,15.45
2022-07-27T23:53:28.332Z,13.35
2022-07-27T23:55:54.968Z,14.88
2022-07-27T23:58:21.525Z,13.73
